KBIH/BIH METAR and TAF weather

Enter ICAO airport designator
Station Type Date Time Source
KBIH METAR 2019/08/19 21:56 UTC NOAA

KBIH 192156Z AUTO 17012KT 10SM CLR 35/M03 A2996 RMK AO2 SLP091 T03501033


Station Type Date Time Source
KBIH Decoded METAR 2019/08/19 21:56 UTC NOAA

BISHOP AIRPORT, CA, United States (KBIH) 37-22N 118-22W 1253M
Aug 19, 2019 - 05:56 PM EDT / 2019.08.19 2156 UTC
Wind: from the S (170 degrees) at 14 MPH (12 KT):0
Visibility: 10 mile(s):0
Sky conditions: clear
Temperature: 95.0 F (35.0 C)
Dew Point: 26.1 F (-3.3 C)
Relative Humidity: 8%
Pressure (altimeter): 29.96 in. Hg (1014 hPa)
ob: KBIH 192156Z AUTO 17012KT 10SM CLR 35/M03 A2996 RMK AO2 SLP091 T03501033
cycle: 22

Station Type Date Time Source
KBIH TAF 2019/08/19 18:34 UTC NOAA

TAF KBIH 191732Z 1918/2018 VRB04KT P6SM SCT250
FM192000 17010G20KT P6SM FEW120 FEW250
FM200400 11007KT P6SM FEW250
FM200800 VRB05KT P6SM SKC

Example: see airport list